LiveATC.Net - Listen to live air traffic control over the Internet! Contact LiveATC.net for advertising information


ICAO: RPLI  IATA: LAO   Airport: Laoag International General Airport
City: Laoag City
Country: Philippines   Continent: Asia
RPLI METAR Weather: RPLI 260800Z 27006KT 9999 FEW018CB SCT019 SCT290 31/24 Q1010 NOSIG RMK A2983 CB SE
RPLI Flight Activity (FlightAware)
RPLI Tower/Approach
Feed Status: DOWN
Last heard on: 2014-10-26 07:54:03 (0 days 1 hours 34 minutes ago)
RPLI Tower/Approach Audio Archives
FacilityFrequency
Laoag Approach122.300
Laoag Tower118.100
Manila North Sector119.300


NOTICE

Unauthorized use prohibited. See LiveATC.net Terms of Service


Find LiveATC Audio Streams


Airport/ARTCC Code

Frequency
(e.g., 124.400, 128.75)
Site-wide search

Browse LiveATC Feeds
LiveATC Coverage Map
Top 50 LiveATC Feeds
Bad Weather Areas

LiveATC FAQ
Offer a LiveATC Feed
Contact LiveATC.net
Press Inquiries

LiveATC on iPhone
LiveATC on Android

LiveATC Mobile
(Mobile browser)

ATC Audio Archives
Interesting Recordings

LiveATC Forums


Home Page
About LiveATC.net
Make a Donation
LiveATC Bookstore

Terms of Use
Privacy Policy

ATC/Radar Sites
U.S. ARTCC Freqs
Canadian Air Freqs

AIRMETs/SIGMETs

FAA Airport Status
Nat'l Airspace Status
Arrival Demand Charts


Server Software By:
Icecast.org
Liquidsoap

Please make a donation to help us keep growing!